Aérodrome :
LOGIN :

S'inscrire | Disclaimer

   EN    FR    IT 

 










Légende :    VFR   VFR Marginal   IFR   IFR Intensif   IFR Très Intensif
Visi : 
Plafond : 
>= 8 km
>= 3000ft
5 à 8 km
1000 à 3000 ft
1500m à 5 km
500 à 1000 ft
800 à 1500m
200 à 500 ft
< 800m
< 200 ft
Symboles :   Orages  Brouillard  Fortes neiges  Fortes précipitations  Vent > 20 kt
SIGMETs :   Divers  Orages  Givrage  Turbulence  Onde Orograph.  Cendres Volcan.







- Altitude de l'aérodrome : 325 ft
- Code IATA : BES
- Voir les cartes d'approche


LFRB - Brest

DERNIER METAR :
  • 191030Z AUTO 19019KT 9999 BKN011 OVC016 15/14 Q1003 BECMG 20020G30KT 4000 RA BKN005 OVC010

METARs EXPIRÉS :
  • 191000Z AUTO 19017KT 9999 OVC008 15/14 Q1004 BECMG 20020G30KT 4000 RA
  • 190930Z AUTO 18011KT 9999 OVC007 14/14 Q1004 BECMG 20020G30KT 4000 RA
  • 190900Z AUTO 18011KT 9999 OVC005 14/13 Q1004 BECMG 20020G30KT 4000 RA
  • 190830Z AUTO 18011KT 9999 OVC005 13/13 Q1004 BECMG 20020G30KT 4000 RA
  • 190800Z AUTO 17008KT 9999 BKN006 13/12 Q1005 BECMG 20020G30KT 4000 RA

TAF AMD TAF LFRB
Valide du 19 à 07h jusqu'au 20 à 12h UTC


190722Z 1907/2012 18008KT 9999 SCT020 SCT230
TEMPO 1907/1909 SCT003 BKN008
BECMG 1909/1912 20020G30KT 4000 RA BKN005 OVC010
TEMPO 1914/1920 18025G40KT
BECMG 1921/1924 27015G25KT 9999 NSW BKN015
ATIS : +33 2 98 32 02 71
Pas de NOTAMs connus pour ce terrain.
1 SIGMET publié pour la FIR Brest (LFRR) :
 
Turbulence forte
LFRR SIGMET 3 VALID 191000/191400 LFPW
LFRR BREST FIR/UIR SEV TURB FCST WI N4530 W00145 - N4330 W00145 - N4400 W00345 - N4530 W00345 FL220/330 MOV E 10KT NC=



MET'MAP, la Météo Aéronautique d'un coup d'oeil ! - Copyright ORBIFLY Décembre 2007 - Disclaimer

ORBIFLY MET'MAP TEAM :

Programmation & Développement : Alexandra Zaïnal
Conception & Développement : Baudouin d'Aumeries
Co-Programmation & Développement : Marc-Olivier Méhu
Soutien technique & logistique : Manuel Goepfert

Contact : metmap@orbifly.com




SOURCES & CREDITS :

   NOAA